CDT,Max TemperatureF,Mean TemperatureF,Min TemperatureF,Max Dew PointF,MeanDew PointF,Min DewpointF,Max Humidity, Mean Humidity, Min Humidity, Max Sea Level PressureIn, Mean Sea Level PressureIn, Min Sea Level PressureIn, Max VisibilityMiles, Mean VisibilityMiles, Min VisibilityMiles, Max Wind SpeedMPH, Mean Wind SpeedMPH, Max Gust SpeedMPH,PrecipitationIn, CloudCover, Events, WindDirDegrees
2013-3-1,27,23,17,13,10,3,71,61,49,30.32,30.27,30.22,10,10,9,13,8,17,0.00,4,,24
2013-3-2,25,14,3,9,5,0,91,65,45,30.33,30.27,30.20,10,10,10,12,7,,0.00,0,,335
2013-3-3,24,16,7,3,0,-7,80,51,25,30.21,30.15,30.11,10,10,10,6,3,,0.00,0,,48
2013-3-4,27,18,8,16,9,0,74,64,53,30.15,30.12,30.08,10,10,10,16,8,18,0.00,6,,98
2013-3-5,27,24,21,23,19,14,88,81,65,30.21,30.03,29.96,10,3,0,15,10,20,0.01,8,Fog-Snow,40
2013-3-6,28,19,10,20,16,6,86,77,63,30.35,30.30,30.21,10,10,7,15,10,,0.00,5,,323
2013-3-7,28,18,8,13,10,5,95,70,49,30.45,30.42,30.37,10,10,10,7,4,,0.00,0,,74
2013-3-8,37,26,14,23,18,11,92,73,53,30.45,30.38,30.25,10,9,4,12,6,,0.00,0,,145
2013-3-9,36,32,28,34,29,22,100,88,75,30.23,29.92,29.75,10,4,1,14,9,21,0.11,8,Rain-Snow,140
2013-3-10,36,32,28,35,31,26,100,92,81,29.89,29.79,29.69,10,4,0,18,8,24,0.13,8,Fog-Rain-Snow,30
2013-3-11,32,28,23,27,24,18,93,86,74,29.78,29.66,29.58,10,4,1,20,12,25,0.02,8,Snow,355
2013-3-12,27,22,17,21,17,11,93,78,58,30.08,29.86,29.72,10,8,2,20,10,26,0.00,7,Snow,296
2013-3-13,28,19,10,10,6,3,84,58,34,30.33,30.26,30.11,10,10,10,16,11,20,0.00,0,,298
2013-3-14,33,20,7,25,15,3,88,76,57,30.31,30.20,30.05,10,10,7,9,4,,0.00,4,,221
2013-3-15,34,28,23,29,27,21,100,89,80,30.01,29.88,29.82,6,2,0,15,7,22,0.08,8,Fog-Snow,65
2013-3-16,24,20,12,21,12,3,93,74,55,30.18,30.00,29.83,10,8,1,17,10,22,0.01,5,Snow,13
2013-3-17,23,13,5,10,5,-2,74,65,54,30.31,30.21,30.05,10,10,10,15,10,,0.00,0,,90
2013-3-18,28,21,14,27,18,9,93,86,74,30.04,29.64,29.52,10,3,0,20,10,32,0.04,7,Fog-Snow,198
2013-3-19,21,15,9,9,5,1,85,67,50,30.05,29.83,29.60,10,7,3,24,19,36,0.00,4,Snow,285
2013-3-20,15,8,1,2,-2,-8,76,63,56,30.12,30.09,30.05,10,10,10,21,13,26,0.00,1,,297
2013-3-21,21,10,0,9,3,-5,83,69,57,30.11,30.08,30.01,10,10,10,10,8,,0.00,1,,300
2013-3-22,32,18,6,14,8,1,83,64,47,30.11,30.08,30.05,10,10,6,10,5,,0.00,0,,324
2013-3-23,36,25,15,20,16,8,84,67,52,30.17,30.12,30.09,10,10,8,7,2,,0.00,3,,55
2013-3-24,32,29,26,21,20,16,81,70,59,30.11,29.99,29.88,10,10,10,14,5,23,0.00,8,,46
2013-3-25,35,26,19,21,18,14,89,71,56,30.17,30.02,29.90,10,10,10,17,9,24,0.00,6,,357
2013-3-26,37,30,23,23,20,16,81,66,52,30.28,30.24,30.17,10,10,10,16,8,21,0.00,8,,329
2013-3-27,37,32,24,24,19,15,79,59,43,30.34,30.31,30.29,10,10,10,10,6,,0.00,5,,306
2013-3-28,41,30,19,20,16,13,74,56,36,30.37,30.34,30.31,10,10,10,8,6,,0.00,0,,309
2013-3-29,48,34,21,22,17,14,74,51,31,30.35,30.29,30.19,10,10,10,6,2,,0.00,2,,144
2013-3-30,41,37,33,39,33,21,100,89,55,30.18,29.91,29.79,10,4,0,14,7,,0.21,7,Fog-Rain,225
2013-3-31,36,33,28,34,29,16,100,86,48,29.90,29.75,29.69,10,4,0,25,11,33,0.00,6,Fog-Snow,289